• Join FlightAware (Why Join?)
  • Login
  • US Flag 
08:52PM EDT


 

Airport Tracker/Info


-or-


 

Live Flight TrackerFlight Track Log ✈ SWA920 ✈ 03-May-2013 ✈ KMHT - KMDW

Flight Track Log - Related Links

Times and Time Zones

All times are in EDT time to prevent confusion due to time zone crossing. See the SWA920 flight status page for this flight to view local times or setup timezone preferences in your user account.

Time Position Orientation Groundspeed Altitude Reporting Facility
EDT Latitude Longitude Course Direction KTS MPH feet Rate Location/Type
01:02PM 42.9500 -71.4167 20° North 158 182 1,400  Level KA90
01:03PM 42.9833 -71.4000 20° North 208 239 2,800 2,880 Climbing KA90
01:04PM 43.0250 -71.3836 16° North 210 242 5,600 3,240 Climbing Boston Center
01:05PM 43.0794 -71.4311 327° Northwest 234 269 8,500 2,580 Climbing Boston Center
01:06PM 43.0931 -71.5389 280° West 239 275 10,800 2,640 Climbing Boston Center
01:07PM 43.0961 -71.6753 272° West 329 379 13,800 2,940 Climbing Boston Center
01:08PM 43.1011 -71.8144 273° West 360 414 16,700 2,580 Climbing Boston Center
01:09PM 43.1058 -71.9481 273° West 386 444 19,000 2,340 Climbing Boston Center
01:10PM 43.1106 -72.1017 272° West 391 450 21,400 2,400 Climbing Boston Center
01:11PM 43.1150 -72.2636 272° West 411 473 23,900 2,100 Climbing Boston Center
01:12PM 43.1256 -72.4258 275° West 425 489 25,700 1,920 Climbing Boston Center
01:13PM 43.1317 -72.5936 273° West 438 504 27,800 2,160 Climbing Boston Center
01:14PM 43.1272 -72.7842 268° West 455 524 30,100 2,100 Climbing Boston Center
01:15PM 43.1308 -72.9550 272° West 455 524 32,000 1,800 Climbing Boston Center
01:16PM 43.1383 -73.1117 274° West 461 531 33,700 1,800 Climbing Boston Center
01:17PM 43.1414 -73.2794 271° West 456 525 35,600 1,680 Climbing Boston Center
01:18PM 43.1419 -73.4558 270° West 441 507 37,100 1,200 Climbing Boston Center
01:19PM 43.1447 -73.6181 271° West 434 499 38,000 420 Climbing Boston Center
01:20PM 43.1469 -73.7861 271° West 434 499 38,000  Level Boston Center
01:21PM 43.1489 -73.9542 271° West 441 507 38,000  Level Boston Center
01:22PM 43.1528 -74.1222 272° West 441 507 38,000  Level Boston Center
01:23PM 43.1544 -74.2844 271° West 441 507 38,000  Level Boston Center
01:24PM 43.1558 -74.4494 271° West 441 507 38,000  Level Boston Center
01:25PM 43.1592 -74.6147 272° West 441 507 38,000  Level Boston Center
01:26PM 43.1603 -74.7714 271° West 436 502 38,000  Level Boston Center
01:27PM 43.1589 -74.9336 269° West 431 496 38,000  Level Boston Center
01:28PM 43.1614 -75.0958 271° West 431 496 38,000  Level Boston Center
01:29PM 43.1606 -75.2239 270° West 425 489 38,000  Level Boston Center
01:30PM 43.1622 -75.3978 271° West 420 483 38,000  Level Boston Center
01:31PM 43.1622 -75.5572 270° West 420 483 38,000  Level Boston Center
01:32PM 43.1619 -75.7136 270° West 420 483 38,000  Level Boston Center
01:34PM 43.1608 -76.0914 270° West 430 495 38,000  Level Cleveland Center
01:35PM 43.1461 -76.2492 263° West 430 495 38,000  Level Cleveland Center
01:36PM 43.0997 -76.4031 248° West 418 481 38,000  Level Cleveland Center
01:37PM 43.0508 -76.5542 246° West 429 494 38,000  Level Cleveland Center
01:38PM 43.0017 -76.7050 246° West 440 506 38,000  Level Cleveland Center
01:39PM 42.9525 -76.8556 246° West 440 506 38,000  Level Cleveland Center
01:40PM 42.9050 -77.0058 247° West 440 506 38,000  Level Cleveland Center
01:41PM 42.8575 -77.1531 246° West 440 506 38,000  Level Cleveland Center
01:42PM 42.8075 -77.3031 246° West 440 506 38,000  Level Cleveland Center
01:43PM 42.7594 -77.4497 246° West 434 499 38,000  Level Cleveland Center
01:44PM 42.7050 -77.5939 243° Southwest 431 496 38,000  Level Cleveland Center
01:45PM 42.6628 -77.7425 249° West 431 496 38,000  Level Cleveland Center
01:46PM 42.6122 -77.8917 245° Southwest 426 490 38,000  Level Cleveland Center
01:47PM 42.5656 -78.0347 246° West 426 490 38,000  Level Cleveland Center
01:48PM 42.5164 -78.1775 245° Southwest 426 490 38,000  Level Cleveland Center
01:49PM 42.4672 -78.3231 245° Southwest 432 497 38,000  Level Cleveland Center
01:50PM 42.4219 -78.4539 245° Southwest 426 490 38,000  Level Cleveland Center
01:51PM 42.3722 -78.5961 245° Southwest 426 490 38,000  Level Cleveland Center
01:52PM 42.3225 -78.7408 245° Southwest 426 490 38,000  Level Cleveland Center
01:53PM 42.2728 -78.8856 245° Southwest 426 490 38,000  Level Cleveland Center
01:54PM 42.2164 -79.0442 244° Southwest 426 490 38,000  Level Cleveland Center
01:55PM 42.1703 -79.1881 247° West 426 490 38,000  Level Cleveland Center
01:56PM 42.1306 -79.3428 251° West 431 496 38,000  Level Cleveland Center
01:57PM 42.0925 -79.4947 251° West 431 496 38,000  Level Cleveland Center
01:58PM 42.0542 -79.6464 251° West 431 496 38,000  Level Cleveland Center
01:59PM 42.0136 -79.7950 250° West 431 496 38,000  Level Cleveland Center
02:00PM 41.9789 -79.9322 251° West 431 496 38,000  Level Cleveland Center
02:01PM 41.9358 -80.0836 249° West 431 496 38,000  Level Cleveland Center
02:02PM 41.8928 -80.2456 250° West 431 496 38,000  Level Cleveland Center
02:03PM 41.8514 -80.3992 250° West 431 496 38,000  Level Cleveland Center
02:04PM 41.8119 -80.5497 251° West 431 496 38,000  Level Cleveland Center
02:05PM 41.7703 -80.7000 250° West 431 496 38,000  Level Cleveland Center
02:06PM 41.7303 -80.8475 250° West 431 496 38,000  Level Cleveland Center
02:07PM 41.7111 -81.0031 261° West 422 486 38,000  Level Cleveland Center
02:08PM 41.7042 -81.1617 267° West 427 491 38,000  Level Cleveland Center
02:09PM 41.6969 -81.3144 266° West 427 491 38,000  Level Cleveland Center
02:10PM 41.6875 -81.4756 266° West 421 484 38,000  Level Cleveland Center
02:11PM 41.6800 -81.6342 266° West 421 484 38,000  Level Cleveland Center
02:12PM 41.6722 -81.7922 266° West 427 491 38,000  Level Cleveland Center
02:13PM 41.6619 -81.9478 265° West 427 491 38,000  Level Cleveland Center
02:14PM 41.6539 -82.1061 266° West 422 486 38,000  Level Cleveland Center
02:15PM 41.6433 -82.2642 265° West 422 486 38,000  Level Cleveland Center
02:16PM 41.6367 -82.4253 267° West 427 491 38,000  Level Cleveland Center
02:17PM 41.6258 -82.5639 264° West 427 491 38,000  Level Cleveland Center
02:18PM 41.6147 -82.7217 265° West 427 491 38,000  Level Cleveland Center
02:19PM 41.6075 -82.8797 267° West 421 484 38,000  Level Cleveland Center
02:20PM 41.5961 -83.0350 264° West 426 490 38,000  Level Cleveland Center
02:21PM 41.5867 -83.1761 265° West 426 490 38,000  Level Cleveland Center
02:22PM 41.5722 -83.3478 264° West 421 484 38,000  Level Cleveland Center
02:23PM 41.5619 -83.5083 265° West 421 484 38,000  Level Cleveland Center
02:24PM 41.5517 -83.6658 265° West 426 490 38,000  Level Cleveland Center
02:25PM 41.5408 -83.8236 265° West 426 490 38,000 -240 Level Cleveland Center
02:26PM 41.5300 -83.9811 265° West 426 490 37,600 -660 Descending Cleveland Center
02:27PM 41.5169 -84.1386 264° West 426 490 36,700 -900 Descending Cleveland Center
02:28PM 41.5100 -84.2908 267° West 426 490 35,800 -2,040 Descending Cleveland Center
02:30PM 41.4803 -84.6628 264° West 439 505 30,100 -1,800 Descending Chicago Center
02:31PM 41.4872 -84.8369 273° West 469 540 30,000 -60 Descending Chicago Center
02:32PM 41.4942 -85.0097 273° West 468 539 30,000 -540 Level Chicago Center
02:33PM 41.4997 -85.1847 272° West 469 540 29,000 -2,160 Descending Chicago Center
02:34PM 41.5036 -85.3625 272° West 471 542 25,600 -2,640 Descending Chicago Center
02:36PM 41.5100 -85.5358 273° West 450 518 23,600 -2,040 Descending Chicago Center
02:37PM 41.5133 -85.6914 272° West 417 480 21,500 -1,800 Descending Chicago Center
02:38PM 41.4986 -85.8361 262° West 390 449 19,900 -1,920 Descending Chicago Center
02:39PM 41.4858 -86.0017 264° West 375 432 17,600 -2,280 Descending Chicago Center
02:40PM 41.4778 -86.1406 266° West 374 430 15,300 -2,040 Descending Chicago Center
02:41PM 41.4694 -86.2750 265° West 366 421 13,400 -1,860 Descending Chicago Center
02:42PM 41.4633 -86.4039 266° West 350 403 11,500 -1,440 Descending Chicago Center
02:43PM 41.4728 -86.5308 276° West 343 395 10,500 -780 Descending Chicago Center
02:44PM 41.4822 -86.6586 276° West 346 398 10,000 -300 Descending Chicago Center
02:45PM 41.4908 -86.7942 275° West 335 386 10,000 -360 Level Chicago Center
02:46PM 41.4997 -86.9128 276° West 325 374 9,300 -1,260 Descending Chicago Center
02:47PM 41.5103 -87.0500 276° West 313 360 7,400 -1,440 Descending Chicago Center
02:48PM 41.5289 -87.1586 283° West 306 352 6,300 -960 Descending Chicago Center
02:49PM 41.5500 -87.2667 285° West 289 333 5,500 -900 Descending Chicago TRACON
02:50PM 41.5667 -87.3667 283° West 285 328 4,500 -780 Descending Chicago TRACON
02:51PM 41.5833 -87.4667 283° West 275 316 4,000 -240 Descending Chicago TRACON
02:52PM 41.5964 -87.5647 280° West 279 321 4,000  Level Chicago Center
02:53PM 41.6122 -87.6847 280° West 277 319 4,000  Level Chicago Center
02:54PM 41.6131 -87.7836 271° West 273 314 4,000  Level Chicago Center
02:55PM 41.6061 -87.8681 264° West 249 287 4,000 -240 Level Chicago Center
02:56PM 41.6422 -87.9242 311° West 248 285 3,600 -660 Descending Chicago Center
02:57PM 41.6972 -87.8636 39° Northeast 224 258 2,700 -840 Descending Chicago Center
02:58PM 41.7167 -87.8333 49° Northeast 188 216 2,200 -780 Descending Chicago TRACON
02:59PM 41.7500 -87.7833 48° Northeast 134 154 1,400 -840 Descending Chicago TRACON
03:02PM 41.7833 -87.7500 334° Northwest  Level FlightAware Approximate